sensor_id;sensor_type;location;lat;lon;timestamp;P1;durP1;ratioP1;P2;durP2;ratioP2
77016;SDS011;65949;53.132;17.930;2024-02-28T00:00:12;26.80;;;11.50;;
77016;SDS011;65949;53.132;17.930;2024-02-28T00:03:00;27.50;;;12.40;;
77016;SDS011;65949;53.132;17.930;2024-02-28T00:05:26;31.80;;;11.70;;
77016;SDS011;65949;53.132;17.930;2024-02-28T00:07:53;35.30;;;14.00;;
77016;SDS011;65949;53.132;17.930;2024-02-28T00:10:20;31.60;;;12.80;;
77016;SDS011;65949;53.132;17.930;2024-02-28T00:12:46;30.90;;;11.90;;
77016;SDS011;65949;53.132;17.930;2024-02-28T00:15:13;33.00;;;12.30;;
77016;SDS011;65949;53.132;17.930;2024-02-28T00:17:40;28.30;;;11.90;;
77016;SDS011;65949;53.132;17.930;2024-02-28T00:20:08;29.00;;;11.20;;
77016;SDS011;65949;53.132;17.930;2024-02-28T00:22:36;26.40;;;11.20;;
77016;SDS011;65949;53.132;17.930;2024-02-28T00:25:05;27.60;;;9.70;;
77016;SDS011;65949;53.132;17.930;2024-02-28T00:27:34;29.60;;;11.30;;
77016;SDS011;65949;53.132;17.930;2024-02-28T00:30:01;25.00;;;10.10;;
77016;SDS011;65949;53.132;17.930;2024-02-28T00:32:27;26.60;;;9.90;;
77016;SDS011;65949;53.132;17.930;2024-02-28T00:34:54;26.60;;;10.70;;
77016;SDS011;65949;53.132;17.930;2024-02-28T00:37:21;26.70;;;10.70;;
77016;SDS011;65949;53.132;17.930;2024-02-28T00:39:47;25.90;;;9.90;;
77016;SDS011;65949;53.132;17.930;2024-02-28T00:42:14;28.50;;;10.80;;
77016;SDS011;65949;53.132;17.930;2024-02-28T00:44:41;30.00;;;11.30;;
77016;SDS011;65949;53.132;17.930;2024-02-28T00:47:09;30.80;;;11.40;;
77016;SDS011;65949;53.132;17.930;2024-02-28T00:49:36;28.00;;;9.20;;
77016;SDS011;65949;53.132;17.930;2024-02-28T00:52:03;31.50;;;12.30;;
77016;SDS011;65949;53.132;17.930;2024-02-28T00:54:31;31.50;;;11.30;;
77016;SDS011;65949;53.132;17.930;2024-02-28T00:56:58;35.70;;;13.10;;
77016;SDS011;65949;53.132;17.930;2024-02-28T00:59:26;33.30;;;13.00;;
77016;SDS011;65949;53.132;17.930;2024-02-28T01:01:53;33.30;;;12.50;;
77016;SDS011;65949;53.132;17.930;2024-02-28T01:04:19;34.70;;;12.10;;
77016;SDS011;65949;53.132;17.930;2024-02-28T01:06:46;37.60;;;14.30;;
77016;SDS011;65949;53.132;17.930;2024-02-28T01:09:12;41.60;;;13.70;;
77016;SDS011;65949;53.132;17.930;2024-02-28T01:11:39;44.20;;;14.70;;
77016;SDS011;65949;53.132;17.930;2024-02-28T01:14:06;37.40;;;13.50;;
77016;SDS011;65949;53.132;17.930;2024-02-28T01:16:32;41.70;;;14.10;;
77016;SDS011;65949;53.132;17.930;2024-02-28T01:18:59;46.80;;;14.30;;
77016;SDS011;65949;53.132;17.930;2024-02-28T01:21:26;38.70;;;14.30;;
77016;SDS011;65949;53.132;17.930;2024-02-28T01:23:53;42.70;;;13.90;;
77016;SDS011;65949;53.132;17.930;2024-02-28T01:26:19;45.20;;;14.50;;
77016;SDS011;65949;53.132;17.930;2024-02-28T01:28:48;44.40;;;12.80;;
77016;SDS011;65949;53.132;17.930;2024-02-28T01:31:15;47.10;;;15.10;;
77016;SDS011;65949;53.132;17.930;2024-02-28T01:33:42;45.20;;;14.40;;
77016;SDS011;65949;53.132;17.930;2024-02-28T01:36:08;42.00;;;14.00;;
77016;SDS011;65949;53.132;17.930;2024-02-28T01:38:37;43.30;;;14.40;;
77016;SDS011;65949;53.132;17.930;2024-02-28T01:41:04;43.60;;;14.90;;
77016;SDS011;65949;53.132;17.930;2024-02-28T01:43:31;43.80;;;14.50;;
77016;SDS011;65949;53.132;17.930;2024-02-28T01:45:59;48.20;;;15.40;;
77016;SDS011;65949;53.132;17.930;2024-02-28T01:48:29;50.30;;;15.60;;
77016;SDS011;65949;53.132;17.930;2024-02-28T01:50:57;46.20;;;14.00;;
77016;SDS011;65949;53.132;17.930;2024-02-28T01:53:24;51.30;;;15.40;;
77016;SDS011;65949;53.132;17.930;2024-02-28T01:55:52;49.40;;;14.90;;
77016;SDS011;65949;53.132;17.930;2024-02-28T01:58:19;48.50;;;14.90;;
77016;SDS011;65949;53.132;17.930;2024-02-28T02:00:47;48.00;;;14.70;;
77016;SDS011;65949;53.132;17.930;2024-02-28T02:03:15;48.10;;;14.70;;
77016;SDS011;65949;53.132;17.930;2024-02-28T02:05:41;48.90;;;14.00;;
77016;SDS011;65949;53.132;17.930;2024-02-28T02:08:09;48.80;;;15.90;;
77016;SDS011;65949;53.132;17.930;2024-02-28T02:10:36;57.80;;;17.20;;
77016;SDS011;65949;53.132;17.930;2024-02-28T02:13:06;50.00;;;14.90;;
77016;SDS011;65949;53.132;17.930;2024-02-28T02:15:33;49.00;;;14.90;;
77016;SDS011;65949;53.132;17.930;2024-02-28T02:18:00;55.30;;;17.00;;
77016;SDS011;65949;53.132;17.930;2024-02-28T02:20:26;45.50;;;15.00;;
77016;SDS011;65949;53.132;17.930;2024-02-28T02:22:58;50.20;;;16.20;;
77016;SDS011;65949;53.132;17.930;2024-02-28T02:25:25;51.40;;;14.50;;
77016;SDS011;65949;53.132;17.930;2024-02-28T02:27:51;50.20;;;14.80;;
77016;SDS011;65949;53.132;17.930;2024-02-28T02:30:18;54.70;;;16.70;;
77016;SDS011;65949;53.132;17.930;2024-02-28T02:32:45;52.50;;;14.90;;
77016;SDS011;65949;53.132;17.930;2024-02-28T02:35:11;50.00;;;13.70;;
77016;SDS011;65949;53.132;17.930;2024-02-28T02:37:42;42.80;;;13.00;;
77016;SDS011;65949;53.132;17.930;2024-02-28T02:40:12;42.60;;;13.40;;
77016;SDS011;65949;53.132;17.930;2024-02-28T02:42:39;43.90;;;12.60;;
77016;SDS011;65949;53.132;17.930;2024-02-28T02:45:06;48.20;;;13.70;;
77016;SDS011;65949;53.132;17.930;2024-02-28T02:47:33;42.50;;;12.60;;
77016;SDS011;65949;53.132;17.930;2024-02-28T02:49:59;37.80;;;11.80;;
77016;SDS011;65949;53.132;17.930;2024-02-28T02:52:26;37.90;;;10.40;;
77016;SDS011;65949;53.132;17.930;2024-02-28T02:54:52;40.70;;;12.70;;
77016;SDS011;65949;53.132;17.930;2024-02-28T02:57:19;37.40;;;10.00;;
77016;SDS011;65949;53.132;17.930;2024-02-28T02:59:47;43.80;;;13.10;;
77016;SDS011;65949;53.132;17.930;2024-02-28T03:02:13;51.60;;;16.20;;
77016;SDS011;65949;53.132;17.930;2024-02-28T03:04:40;45.10;;;14.50;;
77016;SDS011;65949;53.132;17.930;2024-02-28T03:07:06;48.40;;;13.40;;
77016;SDS011;65949;53.132;17.930;2024-02-28T03:09:33;48.20;;;15.10;;
77016;SDS011;65949;53.132;17.930;2024-02-28T03:12:00;38.30;;;11.10;;
77016;SDS011;65949;53.132;17.930;2024-02-28T03:14:27;47.50;;;12.90;;
77016;SDS011;65949;53.132;17.930;2024-02-28T03:16:53;52.40;;;15.10;;
77016;SDS011;65949;53.132;17.930;2024-02-28T03:19:20;50.10;;;15.10;;
77016;SDS011;65949;53.132;17.930;2024-02-28T03:21:47;46.30;;;13.30;;
77016;SDS011;65949;53.132;17.930;2024-02-28T03:24:14;45.00;;;13.30;;
77016;SDS011;65949;53.132;17.930;2024-02-28T03:26:40;43.10;;;13.30;;
77016;SDS011;65949;53.132;17.930;2024-02-28T03:29:07;35.50;;;11.30;;
77016;SDS011;65949;53.132;17.930;2024-02-28T03:31:33;41.20;;;12.30;;
77016;SDS011;65949;53.132;17.930;2024-02-28T03:34:00;37.30;;;11.30;;
77016;SDS011;65949;53.132;17.930;2024-02-28T03:36:27;40.30;;;11.20;;
77016;SDS011;65949;53.132;17.930;2024-02-28T03:38:55;37.10;;;11.90;;
77016;SDS011;65949;53.132;17.930;2024-02-28T03:41:21;40.00;;;12.00;;
77016;SDS011;65949;53.132;17.930;2024-02-28T03:43:48;40.20;;;12.00;;
77016;SDS011;65949;53.132;17.930;2024-02-28T03:46:15;36.80;;;11.70;;
77016;SDS011;65949;53.132;17.930;2024-02-28T03:48:41;37.20;;;12.70;;
77016;SDS011;65949;53.132;17.930;2024-02-28T03:51:08;38.70;;;11.70;;
77016;SDS011;65949;53.132;17.930;2024-02-28T03:53:35;34.80;;;10.80;;
77016;SDS011;65949;53.132;17.930;2024-02-28T03:56:01;37.50;;;11.30;;
77016;SDS011;65949;53.132;17.930;2024-02-28T03:58:29;44.60;;;12.90;;
77016;SDS011;65949;53.132;17.930;2024-02-28T04:00:56;41.30;;;12.40;;
77016;SDS011;65949;53.132;17.930;2024-02-28T04:03:22;45.50;;;13.60;;
77016;SDS011;65949;53.132;17.930;2024-02-28T04:05:49;45.70;;;13.20;;
77016;SDS011;65949;53.132;17.930;2024-02-28T04:08:16;46.00;;;13.40;;
77016;SDS011;65949;53.132;17.930;2024-02-28T04:10:42;39.70;;;11.70;;
77016;SDS011;65949;53.132;17.930;2024-02-28T04:13:09;43.50;;;13.20;;
77016;SDS011;65949;53.132;17.930;2024-02-28T04:15:35;56.80;;;18.80;;
77016;SDS011;65949;53.132;17.930;2024-02-28T04:18:04;55.00;;;19.90;;
77016;SDS011;65949;53.132;17.930;2024-02-28T04:20:31;56.90;;;20.00;;
77016;SDS011;65949;53.132;17.930;2024-02-28T04:22:57;58.00;;;19.50;;
77016;SDS011;65949;53.132;17.930;2024-02-28T04:25:24;60.10;;;19.70;;
77016;SDS011;65949;53.132;17.930;2024-02-28T04:27:51;52.60;;;15.60;;
77016;SDS011;65949;53.132;17.930;2024-02-28T04:30:17;57.20;;;16.60;;
77016;SDS011;65949;53.132;17.930;2024-02-28T04:32:44;60.40;;;15.20;;
77016;SDS011;65949;53.132;17.930;2024-02-28T04:35:11;53.00;;;14.50;;
77016;SDS011;65949;53.132;17.930;2024-02-28T04:37:37;47.20;;;14.30;;
77016;SDS011;65949;53.132;17.930;2024-02-28T04:40:05;40.30;;;13.40;;
77016;SDS011;65949;53.132;17.930;2024-02-28T04:42:33;37.40;;;12.60;;
77016;SDS011;65949;53.132;17.930;2024-02-28T04:44:59;36.80;;;12.40;;
77016;SDS011;65949;53.132;17.930;2024-02-28T04:47:26;36.10;;;10.70;;
77016;SDS011;65949;53.132;17.930;2024-02-28T04:49:52;36.80;;;11.30;;
77016;SDS011;65949;53.132;17.930;2024-02-28T04:52:19;41.40;;;12.30;;
77016;SDS011;65949;53.132;17.930;2024-02-28T04:54:46;48.70;;;14.20;;
77016;SDS011;65949;53.132;17.930;2024-02-28T04:57:12;54.80;;;14.40;;
77016;SDS011;65949;53.132;17.930;2024-02-28T04:59:41;44.40;;;13.40;;
77016;SDS011;65949;53.132;17.930;2024-02-28T05:02:08;44.60;;;13.00;;
77016;SDS011;65949;53.132;17.930;2024-02-28T05:04:34;47.60;;;15.00;;
77016;SDS011;65949;53.132;17.930;2024-02-28T05:07:01;47.70;;;14.00;;
77016;SDS011;65949;53.132;17.930;2024-02-28T05:09:29;42.70;;;12.30;;
77016;SDS011;65949;53.132;17.930;2024-02-28T05:11:56;41.70;;;13.20;;
77016;SDS011;65949;53.132;17.930;2024-02-28T05:14:22;46.50;;;13.40;;
77016;SDS011;65949;53.132;17.930;2024-02-28T05:16:49;44.90;;;13.40;;
77016;SDS011;65949;53.132;17.930;2024-02-28T05:19:16;43.30;;;12.80;;
77016;SDS011;65949;53.132;17.930;2024-02-28T05:21:45;46.80;;;13.80;;
77016;SDS011;65949;53.132;17.930;2024-02-28T05:24:12;47.00;;;13.40;;
77016;SDS011;65949;53.132;17.930;2024-02-28T05:26:39;45.90;;;13.80;;
77016;SDS011;65949;53.132;17.930;2024-02-28T05:29:05;42.30;;;14.10;;
77016;SDS011;65949;53.132;17.930;2024-02-28T05:31:32;45.00;;;15.20;;
77016;SDS011;65949;53.132;17.930;2024-02-28T05:33:59;52.80;;;15.70;;
77016;SDS011;65949;53.132;17.930;2024-02-28T05:36:27;46.00;;;15.20;;
77016;SDS011;65949;53.132;17.930;2024-02-28T05:38:56;48.50;;;15.30;;
77016;SDS011;65949;53.132;17.930;2024-02-28T05:41:23;47.00;;;15.00;;
77016;SDS011;65949;53.132;17.930;2024-02-28T05:43:51;45.70;;;14.30;;
77016;SDS011;65949;53.132;17.930;2024-02-28T05:46:18;40.10;;;13.00;;
77016;SDS011;65949;53.132;17.930;2024-02-28T05:48:45;42.90;;;12.70;;
77016;SDS011;65949;53.132;17.930;2024-02-28T05:51:12;43.40;;;13.70;;
77016;SDS011;65949;53.132;17.930;2024-02-28T05:53:40;42.60;;;13.20;;
77016;SDS011;65949;53.132;17.930;2024-02-28T05:56:07;43.50;;;14.30;;
77016;SDS011;65949;53.132;17.930;2024-02-28T05:58:46;41.90;;;13.40;;
77016;SDS011;65949;53.132;17.930;2024-02-28T06:01:17;44.50;;;13.90;;
77016;SDS011;65949;53.132;17.930;2024-02-28T06:03:45;45.10;;;14.60;;
77016;SDS011;65949;53.132;17.930;2024-02-28T06:06:12;41.90;;;14.30;;
77016;SDS011;65949;53.132;17.930;2024-02-28T06:08:39;47.90;;;15.70;;
77016;SDS011;65949;53.132;17.930;2024-02-28T06:11:07;44.80;;;16.40;;
77016;SDS011;65949;53.132;17.930;2024-02-28T06:13:34;42.40;;;15.10;;
77016;SDS011;65949;53.132;17.930;2024-02-28T06:16:02;48.80;;;15.20;;
77016;SDS011;65949;53.132;17.930;2024-02-28T06:18:29;45.10;;;13.60;;
77016;SDS011;65949;53.132;17.930;2024-02-28T06:20:59;42.40;;;13.00;;
77016;SDS011;65949;53.132;17.930;2024-02-28T06:23:29;47.50;;;14.00;;
77016;SDS011;65949;53.132;17.930;2024-02-28T06:25:56;43.90;;;12.10;;
77016;SDS011;65949;53.132;17.930;2024-02-28T06:28:23;46.10;;;13.60;;
77016;SDS011;65949;53.132;17.930;2024-02-28T06:30:50;46.40;;;12.90;;
77016;SDS011;65949;53.132;17.930;2024-02-28T06:33:17;40.30;;;12.20;;
77016;SDS011;65949;53.132;17.930;2024-02-28T06:35:45;45.40;;;14.90;;
77016;SDS011;65949;53.132;17.930;2024-02-28T06:38:11;45.10;;;13.40;;
77016;SDS011;65949;53.132;17.930;2024-02-28T06:40:38;41.30;;;13.00;;
77016;SDS011;65949;53.132;17.930;2024-02-28T06:43:05;42.90;;;13.50;;
77016;SDS011;65949;53.132;17.930;2024-02-28T06:45:32;41.90;;;12.40;;
77016;SDS011;65949;53.132;17.930;2024-02-28T06:47:58;43.20;;;12.90;;
77016;SDS011;65949;53.132;17.930;2024-02-28T06:50:25;41.20;;;12.30;;
77016;SDS011;65949;53.132;17.930;2024-02-28T06:52:52;34.60;;;10.50;;
77016;SDS011;65949;53.132;17.930;2024-02-28T06:55:20;37.40;;;12.30;;
77016;SDS011;65949;53.132;17.930;2024-02-28T06:57:47;42.20;;;12.00;;
77016;SDS011;65949;53.132;17.930;2024-02-28T07:00:14;37.50;;;11.60;;
77016;SDS011;65949;53.132;17.930;2024-02-28T07:02:42;41.10;;;11.40;;
77016;SDS011;65949;53.132;17.930;2024-02-28T07:05:08;41.40;;;12.00;;
77016;SDS011;65949;53.132;17.930;2024-02-28T07:07:35;42.20;;;13.90;;
77016;SDS011;65949;53.132;17.930;2024-02-28T07:10:02;39.90;;;12.30;;
77016;SDS011;65949;53.132;17.930;2024-02-28T07:12:32;39.30;;;12.20;;
77016;SDS011;65949;53.132;17.930;2024-02-28T07:14:59;41.00;;;13.60;;
77016;SDS011;65949;53.132;17.930;2024-02-28T07:17:26;38.90;;;12.30;;
77016;SDS011;65949;53.132;17.930;2024-02-28T07:19:52;42.30;;;12.60;;
77016;SDS011;65949;53.132;17.930;2024-02-28T07:22:19;35.00;;;11.90;;
77016;SDS011;65949;53.132;17.930;2024-02-28T07:24:47;43.00;;;12.90;;
77016;SDS011;65949;53.132;17.930;2024-02-28T07:27:14;40.20;;;14.00;;
77016;SDS011;65949;53.132;17.930;2024-02-28T07:29:42;42.20;;;13.40;;
77016;SDS011;65949;53.132;17.930;2024-02-28T07:32:08;36.20;;;11.90;;
77016;SDS011;65949;53.132;17.930;2024-02-28T07:34:35;38.40;;;12.30;;
77016;SDS011;65949;53.132;17.930;2024-02-28T07:37:01;49.40;;;20.60;;
77016;SDS011;65949;53.132;17.930;2024-02-28T07:39:28;33.10;;;10.40;;
77016;SDS011;65949;53.132;17.930;2024-02-28T07:41:55;35.50;;;11.30;;
77016;SDS011;65949;53.132;17.930;2024-02-28T07:44:22;36.10;;;12.00;;
77016;SDS011;65949;53.132;17.930;2024-02-28T07:46:49;37.60;;;12.70;;
77016;SDS011;65949;53.132;17.930;2024-02-28T07:49:17;37.30;;;13.50;;
77016;SDS011;65949;53.132;17.930;2024-02-28T07:51:43;40.30;;;13.50;;
77016;SDS011;65949;53.132;17.930;2024-02-28T07:54:10;40.10;;;13.60;;
77016;SDS011;65949;53.132;17.930;2024-02-28T07:56:37;37.80;;;13.80;;
77016;SDS011;65949;53.132;17.930;2024-02-28T07:59:03;35.80;;;13.30;;
77016;SDS011;65949;53.132;17.930;2024-02-28T08:01:30;35.00;;;11.50;;
77016;SDS011;65949;53.132;17.930;2024-02-28T08:03:57;37.40;;;13.20;;
77016;SDS011;65949;53.132;17.930;2024-02-28T08:06:23;36.50;;;12.80;;
77016;SDS011;65949;53.132;17.930;2024-02-28T08:08:50;31.80;;;11.20;;
77016;SDS011;65949;53.132;17.930;2024-02-28T08:11:17;34.70;;;11.40;;
77016;SDS011;65949;53.132;17.930;2024-02-28T08:13:45;37.90;;;12.70;;
77016;SDS011;65949;53.132;17.930;2024-02-28T08:16:11;28.20;;;11.50;;
77016;SDS011;65949;53.132;17.930;2024-02-28T08:18:38;31.40;;;12.30;;
77016;SDS011;65949;53.132;17.930;2024-02-28T08:21:05;30.90;;;11.70;;
77016;SDS011;65949;53.132;17.930;2024-02-28T08:23:31;27.40;;;11.60;;
77016;SDS011;65949;53.132;17.930;2024-02-28T08:25:58;31.50;;;11.90;;
77016;SDS011;65949;53.132;17.930;2024-02-28T08:28:25;30.60;;;11.10;;
77016;SDS011;65949;53.132;17.930;2024-02-28T08:30:51;27.60;;;11.20;;
77016;SDS011;65949;53.132;17.930;2024-02-28T08:33:18;26.30;;;11.40;;
77016;SDS011;65949;53.132;17.930;2024-02-28T08:35:45;29.90;;;10.90;;
77016;SDS011;65949;53.132;17.930;2024-02-28T08:38:11;27.50;;;10.80;;
77016;SDS011;65949;53.132;17.930;2024-02-28T08:40:38;26.50;;;11.00;;
77016;SDS011;65949;53.132;17.930;2024-02-28T08:43:05;25.50;;;10.40;;
77016;SDS011;65949;53.132;17.930;2024-02-28T08:45:32;25.00;;;10.60;;
77016;SDS011;65949;53.132;17.930;2024-02-28T08:47:58;37.70;;;16.40;;
77016;SDS011;65949;53.132;17.930;2024-02-28T08:50:27;34.30;;;13.70;;
77016;SDS011;65949;53.132;17.930;2024-02-28T08:52:55;32.20;;;14.40;;
77016;SDS011;65949;53.132;17.930;2024-02-28T08:55:22;29.70;;;13.10;;
77016;SDS011;65949;53.132;17.930;2024-02-28T08:57:48;30.00;;;12.60;;
77016;SDS011;65949;53.132;17.930;2024-02-28T09:00:16;32.80;;;16.10;;
77016;SDS011;65949;53.132;17.930;2024-02-28T09:02:43;27.50;;;12.70;;
77016;SDS011;65949;53.132;17.930;2024-02-28T09:05:10;33.30;;;13.60;;
77016;SDS011;65949;53.132;17.930;2024-02-28T09:07:37;29.50;;;12.50;;
77016;SDS011;65949;53.132;17.930;2024-02-28T09:10:04;32.80;;;14.30;;
77016;SDS011;65949;53.132;17.930;2024-02-28T09:12:32;34.10;;;14.80;;
77016;SDS011;65949;53.132;17.930;2024-02-28T09:14:59;30.20;;;11.70;;
77016;SDS011;65949;53.132;17.930;2024-02-28T09:17:26;31.30;;;12.70;;
77016;SDS011;65949;53.132;17.930;2024-02-28T09:19:53;29.50;;;11.80;;
77016;SDS011;65949;53.132;17.930;2024-02-28T09:22:20;26.50;;;10.50;;
77016;SDS011;65949;53.132;17.930;2024-02-28T09:24:47;33.30;;;11.70;;
77016;SDS011;65949;53.132;17.930;2024-02-28T09:27:15;33.70;;;13.30;;
77016;SDS011;65949;53.132;17.930;2024-02-28T09:29:41;31.60;;;13.10;;
77016;SDS011;65949;53.132;17.930;2024-02-28T09:32:08;29.20;;;11.40;;
77016;SDS011;65949;53.132;17.930;2024-02-28T09:34:36;28.30;;;11.20;;
77016;SDS011;65949;53.132;17.930;2024-02-28T09:37:03;34.10;;;12.00;;
77016;SDS011;65949;53.132;17.930;2024-02-28T09:39:30;29.80;;;11.00;;
77016;SDS011;65949;53.132;17.930;2024-02-28T09:41:57;29.10;;;12.00;;
77016;SDS011;65949;53.132;17.930;2024-02-28T09:44:24;32.00;;;12.10;;
77016;SDS011;65949;53.132;17.930;2024-02-28T09:46:52;33.70;;;12.10;;
77016;SDS011;65949;53.132;17.930;2024-02-28T09:49:19;39.00;;;13.40;;
77016;SDS011;65949;53.132;17.930;2024-02-28T09:51:48;33.30;;;12.70;;
77016;SDS011;65949;53.132;17.930;2024-02-28T09:54:17;36.80;;;13.70;;
77016;SDS011;65949;53.132;17.930;2024-02-28T09:56:44;32.80;;;12.20;;
77016;SDS011;65949;53.132;17.930;2024-02-28T09:59:11;31.70;;;11.70;;
77016;SDS011;65949;53.132;17.930;2024-02-28T10:01:42;30.60;;;12.50;;
77016;SDS011;65949;53.132;17.930;2024-02-28T10:04:10;25.40;;;9.30;;
77016;SDS011;65949;53.132;17.930;2024-02-28T10:06:40;29.50;;;11.40;;
77016;SDS011;65949;53.132;17.930;2024-02-28T10:09:07;28.90;;;11.10;;
77016;SDS011;65949;53.132;17.930;2024-02-28T10:11:34;27.50;;;11.70;;
77016;SDS011;65949;53.132;17.930;2024-02-28T10:14:01;25.30;;;10.40;;
77016;SDS011;65949;53.132;17.930;2024-02-28T10:16:29;31.60;;;14.30;;
77016;SDS011;65949;53.132;17.930;2024-02-28T10:18:55;25.90;;;11.00;;
77016;SDS011;65949;53.132;17.930;2024-02-28T10:21:22;24.90;;;11.30;;
77016;SDS011;65949;53.132;17.930;2024-02-28T10:23:50;24.90;;;10.30;;
77016;SDS011;65949;53.132;17.930;2024-02-28T10:26:17;22.50;;;9.70;;
77016;SDS011;65949;53.132;17.930;2024-02-28T10:28:44;25.90;;;10.40;;
77016;SDS011;65949;53.132;17.930;2024-02-28T10:31:11;20.40;;;9.60;;
77016;SDS011;65949;53.132;17.930;2024-02-28T10:33:41;21.10;;;9.90;;
77016;SDS011;65949;53.132;17.930;2024-02-28T10:36:08;23.70;;;11.70;;
77016;SDS011;65949;53.132;17.930;2024-02-28T10:38:35;19.90;;;9.40;;
77016;SDS011;65949;53.132;17.930;2024-02-28T10:41:05;20.90;;;9.60;;
77016;SDS011;65949;53.132;17.930;2024-02-28T10:43:32;20.90;;;9.70;;
77016;SDS011;65949;53.132;17.930;2024-02-28T10:46:01;21.90;;;10.20;;
77016;SDS011;65949;53.132;17.930;2024-02-28T10:48:27;19.70;;;9.60;;
77016;SDS011;65949;53.132;17.930;2024-02-28T10:50:54;22.50;;;10.80;;
77016;SDS011;65949;53.132;17.930;2024-02-28T10:53:22;22.10;;;10.40;;
77016;SDS011;65949;53.132;17.930;2024-02-28T10:56:03;28.40;;;13.00;;
77016;SDS011;65949;53.132;17.930;2024-02-28T10:58:34;23.30;;;10.90;;
77016;SDS011;65949;53.132;17.930;2024-02-28T11:01:05;29.80;;;14.50;;
77016;SDS011;65949;53.132;17.930;2024-02-28T11:03:33;32.70;;;15.30;;
77016;SDS011;65949;53.132;17.930;2024-02-28T11:06:00;31.30;;;14.70;;
77016;SDS011;65949;53.132;17.930;2024-02-28T11:08:27;29.30;;;13.10;;
77016;SDS011;65949;53.132;17.930;2024-02-28T11:11:01;30.80;;;14.30;;
77016;SDS011;65949;53.132;17.930;2024-02-28T11:13:30;24.90;;;12.80;;
77016;SDS011;65949;53.132;17.930;2024-02-28T11:16:09;23.80;;;10.30;;
77016;SDS011;65949;53.132;17.930;2024-02-28T11:18:47;23.80;;;10.90;;
77016;SDS011;65949;53.132;17.930;2024-02-28T11:21:15;25.60;;;10.50;;
77016;SDS011;65949;53.132;17.930;2024-02-28T11:23:45;26.90;;;12.80;;
77016;SDS011;65949;53.132;17.930;2024-02-28T11:26:14;24.30;;;11.60;;
77016;SDS011;65949;53.132;17.930;2024-02-28T11:28:41;24.80;;;10.90;;
77016;SDS011;65949;53.132;17.930;2024-02-28T11:31:08;27.20;;;12.00;;
77016;SDS011;65949;53.132;17.930;2024-02-28T11:33:35;31.50;;;13.40;;
77016;SDS011;65949;53.132;17.930;2024-02-28T11:36:03;29.10;;;12.70;;
77016;SDS011;65949;53.132;17.930;2024-02-28T11:38:30;31.10;;;13.40;;
77016;SDS011;65949;53.132;17.930;2024-02-28T11:40:58;33.20;;;13.70;;
77016;SDS011;65949;53.132;17.930;2024-02-28T11:43:24;41.30;;;16.10;;
77016;SDS011;65949;53.132;17.930;2024-02-28T11:45:51;88.30;;;40.70;;
77016;SDS011;65949;53.132;17.930;2024-02-28T11:48:18;44.20;;;20.80;;
77016;SDS011;65949;53.132;17.930;2024-02-28T11:50:45;36.50;;;17.20;;
77016;SDS011;65949;53.132;17.930;2024-02-28T11:53:11;46.40;;;23.90;;
77016;SDS011;65949;53.132;17.930;2024-02-28T11:55:38;40.20;;;17.50;;
77016;SDS011;65949;53.132;17.930;2024-02-28T11:58:08;30.50;;;13.90;;
77016;SDS011;65949;53.132;17.930;2024-02-28T12:00:51;28.10;;;11.70;;
77016;SDS011;65949;53.132;17.930;2024-02-28T12:03:21;28.80;;;14.20;;
77016;SDS011;65949;53.132;17.930;2024-02-28T12:05:49;29.70;;;13.30;;
77016;SDS011;65949;53.132;17.930;2024-02-28T12:08:17;33.80;;;17.40;;
77016;SDS011;65949;53.132;17.930;2024-02-28T12:10:47;30.50;;;13.50;;
77016;SDS011;65949;53.132;17.930;2024-02-28T12:13:17;34.70;;;16.30;;
77016;SDS011;65949;53.132;17.930;2024-02-28T12:15:45;26.80;;;12.10;;
77016;SDS011;65949;53.132;17.930;2024-02-28T12:18:14;28.50;;;13.60;;
77016;SDS011;65949;53.132;17.930;2024-02-28T12:20:41;23.70;;;10.80;;
77016;SDS011;65949;53.132;17.930;2024-02-28T12:23:08;23.80;;;10.20;;
77016;SDS011;65949;53.132;17.930;2024-02-28T12:25:35;28.90;;;12.40;;
77016;SDS011;65949;53.132;17.930;2024-02-28T12:28:02;28.40;;;14.60;;
77016;SDS011;65949;53.132;17.930;2024-02-28T12:30:39;27.10;;;11.90;;
77016;SDS011;65949;53.132;17.930;2024-02-28T12:33:08;29.90;;;12.60;;
77016;SDS011;65949;53.132;17.930;2024-02-28T12:35:35;29.70;;;12.30;;
77016;SDS011;65949;53.132;17.930;2024-02-28T12:38:03;26.10;;;10.20;;
77016;SDS011;65949;53.132;17.930;2024-02-28T12:40:29;26.40;;;10.50;;
77016;SDS011;65949;53.132;17.930;2024-02-28T12:42:56;22.90;;;10.30;;
77016;SDS011;65949;53.132;17.930;2024-02-28T12:45:23;31.30;;;12.80;;
77016;SDS011;65949;53.132;17.930;2024-02-28T12:47:49;32.80;;;12.80;;
77016;SDS011;65949;53.132;17.930;2024-02-28T12:50:16;30.70;;;12.10;;
77016;SDS011;65949;53.132;17.930;2024-02-28T12:52:42;28.50;;;12.50;;
77016;SDS011;65949;53.132;17.930;2024-02-28T12:55:09;29.00;;;12.40;;
77016;SDS011;65949;53.132;17.930;2024-02-28T12:57:36;27.80;;;12.30;;
77016;SDS011;65949;53.132;17.930;2024-02-28T13:00:03;30.40;;;12.00;;
77016;SDS011;65949;53.132;17.930;2024-02-28T13:02:30;29.80;;;13.70;;
77016;SDS011;65949;53.132;17.930;2024-02-28T13:04:57;29.60;;;13.30;;
77016;SDS011;65949;53.132;17.930;2024-02-28T13:07:24;30.50;;;13.40;;
77016;SDS011;65949;53.132;17.930;2024-02-28T13:09:50;31.80;;;13.70;;
77016;SDS011;65949;53.132;17.930;2024-02-28T13:12:17;28.00;;;11.30;;
77016;SDS011;65949;53.132;17.930;2024-02-28T13:14:45;33.00;;;14.00;;
77016;SDS011;65949;53.132;17.930;2024-02-28T13:17:12;33.50;;;14.10;;
77016;SDS011;65949;53.132;17.930;2024-02-28T13:19:39;31.10;;;12.50;;
77016;SDS011;65949;53.132;17.930;2024-02-28T13:22:06;29.50;;;11.90;;
77016;SDS011;65949;53.132;17.930;2024-02-28T13:24:33;33.10;;;11.60;;
77016;SDS011;65949;53.132;17.930;2024-02-28T13:27:02;28.00;;;11.60;;
77016;SDS011;65949;53.132;17.930;2024-02-28T13:29:29;32.30;;;13.00;;
77016;SDS011;65949;53.132;17.930;2024-02-28T13:31:58;32.30;;;14.60;;
77016;SDS011;65949;53.132;17.930;2024-02-28T13:34:25;30.20;;;14.00;;
77016;SDS011;65949;53.132;17.930;2024-02-28T13:36:51;27.50;;;11.50;;
77016;SDS011;65949;53.132;17.930;2024-02-28T13:39:18;28.30;;;12.70;;
77016;SDS011;65949;53.132;17.930;2024-02-28T13:41:45;27.80;;;11.70;;
77016;SDS011;65949;53.132;17.930;2024-02-28T13:44:12;30.90;;;12.50;;
77016;SDS011;65949;53.132;17.930;2024-02-28T13:46:38;26.20;;;12.10;;
77016;SDS011;65949;53.132;17.930;2024-02-28T13:49:07;31.00;;;14.50;;
77016;SDS011;65949;53.132;17.930;2024-02-28T13:51:34;29.90;;;13.20;;
77016;SDS011;65949;53.132;17.930;2024-02-28T13:54:01;26.50;;;13.00;;
77016;SDS011;65949;53.132;17.930;2024-02-28T13:56:28;25.40;;;11.10;;
77016;SDS011;65949;53.132;17.930;2024-02-28T13:58:57;39.80;;;20.20;;
77016;SDS011;65949;53.132;17.930;2024-02-28T14:01:24;30.20;;;13.90;;
77016;SDS011;65949;53.132;17.930;2024-02-28T14:03:50;40.00;;;21.40;;
77016;SDS011;65949;53.132;17.930;2024-02-28T14:06:17;62.30;;;31.40;;
77016;SDS011;65949;53.132;17.930;2024-02-28T14:08:44;40.80;;;19.70;;